Narka, Kansas
Current Conditions -  °F | °C
As of 3:35 PM on Wednesday 26 Nov 2014 (Local Time) from KHJH Reporting Station
Clear Clear  
Wind Chill: 21°   Ceiling: Unl
Heat Index: 32°   Visibility: 10mi
Dew Point: 20°   Wind: 17mph
Humidity: 62%   Direction: 340°NNW
Pressure: 30.27"   Gusts: 24mph
Location:  39.96°N, 97.43°W
Report Text: KHJH 262135Z AUTO 34015G21KT 10SM CLR 00/M07 A3027 RMK AO2 T00001066
Loading
Personal Weather Stations






























Interactive Weather Map New forecast layout! Learn more

10-Day Weather Forecast

Advertisements
Track Severe Weather on mobile